sensor_id;sensor_type;location;lat;lon;timestamp;P1;durP1;ratioP1;P2;durP2;ratioP2
57321;SDS011;43159;51.006;18.224;2023-05-19T00:07:56;8.10;;;2.80;;
57321;SDS011;43159;51.006;18.224;2023-05-19T00:17:43;11.80;;;3.00;;
57321;SDS011;43159;51.006;18.224;2023-05-19T00:27:28;8.20;;;2.80;;
57321;SDS011;43159;51.006;18.224;2023-05-19T00:37:12;6.00;;;1.90;;
57321;SDS011;43159;51.006;18.224;2023-05-19T00:46:56;10.30;;;3.40;;
57321;SDS011;43159;51.006;18.224;2023-05-19T00:56:39;8.50;;;3.00;;
57321;SDS011;43159;51.006;18.224;2023-05-19T01:06:23;9.00;;;3.00;;
57321;SDS011;43159;51.006;18.224;2023-05-19T01:16:11;10.40;;;2.90;;
57321;SDS011;43159;51.006;18.224;2023-05-19T01:36:46;9.10;;;3.50;;
57321;SDS011;43159;51.006;18.224;2023-05-19T01:46:31;7.60;;;3.10;;
57321;SDS011;43159;51.006;18.224;2023-05-19T01:56:14;12.40;;;3.60;;
57321;SDS011;43159;51.006;18.224;2023-05-19T02:06:54;25.00;;;2.50;;
57321;SDS011;43159;51.006;18.224;2023-05-19T02:17:24;9.50;;;2.40;;
57321;SDS011;43159;51.006;18.224;2023-05-19T02:27:10;8.20;;;2.30;;
57321;SDS011;43159;51.006;18.224;2023-05-19T02:36:52;9.70;;;2.40;;
57321;SDS011;43159;51.006;18.224;2023-05-19T02:46:35;9.00;;;2.30;;
57321;SDS011;43159;51.006;18.224;2023-05-19T02:56:16;0.40;;;0.40;;
57321;SDS011;43159;51.006;18.224;2023-05-19T03:05:59;10.10;;;3.00;;
57321;SDS011;43159;51.006;18.224;2023-05-19T03:15:42;9.20;;;2.90;;
57321;SDS011;43159;51.006;18.224;2023-05-19T03:32:45;6.00;;;2.50;;
57321;SDS011;43159;51.006;18.224;2023-05-19T03:42:30;9.10;;;2.30;;
57321;SDS011;43159;51.006;18.224;2023-05-19T03:52:12;7.70;;;2.50;;
57321;SDS011;43159;51.006;18.224;2023-05-19T04:01:59;8.80;;;2.50;;
57321;SDS011;43159;51.006;18.224;2023-05-19T04:11:42;7.90;;;1.90;;
57321;SDS011;43159;51.006;18.224;2023-05-19T04:21:24;10.80;;;2.90;;
57321;SDS011;43159;51.006;18.224;2023-05-19T04:31:11;5.70;;;1.90;;
57321;SDS011;43159;51.006;18.224;2023-05-19T04:41:04;9.30;;;2.50;;
57321;SDS011;43159;51.006;18.224;2023-05-19T04:50:56;8.60;;;2.30;;
57321;SDS011;43159;51.006;18.224;2023-05-19T05:00:41;7.40;;;2.50;;
57321;SDS011;43159;51.006;18.224;2023-05-19T05:10:24;16.10;;;3.00;;
57321;SDS011;43159;51.006;18.224;2023-05-19T05:20:08;8.80;;;2.60;;
57321;SDS011;43159;51.006;18.224;2023-05-19T05:29:54;8.90;;;2.80;;
57321;SDS011;43159;51.006;18.224;2023-05-19T05:39:36;5.60;;;1.90;;
57321;SDS011;43159;51.006;18.224;2023-05-19T05:49:18;11.80;;;3.50;;
57321;SDS011;43159;51.006;18.224;2023-05-19T05:59:01;8.40;;;2.00;;
57321;SDS011;43159;51.006;18.224;2023-05-19T06:08:45;6.80;;;2.30;;
57321;SDS011;43159;51.006;18.224;2023-05-19T06:18:28;10.40;;;3.20;;
57321;SDS011;43159;51.006;18.224;2023-05-19T06:28:11;6.60;;;2.70;;
57321;SDS011;43159;51.006;18.224;2023-05-19T06:45:12;10.80;;;3.30;;
57321;SDS011;43159;51.006;18.224;2023-05-19T06:55:00;9.90;;;2.70;;
57321;SDS011;43159;51.006;18.224;2023-05-19T07:04:43;8.80;;;3.20;;
57321;SDS011;43159;51.006;18.224;2023-05-19T07:14:25;7.40;;;2.50;;
57321;SDS011;43159;51.006;18.224;2023-05-19T07:24:10;11.10;;;3.60;;
57321;SDS011;43159;51.006;18.224;2023-05-19T07:33:52;13.80;;;3.70;;
57321;SDS011;43159;51.006;18.224;2023-05-19T07:43:36;10.60;;;3.40;;
57321;SDS011;43159;51.006;18.224;2023-05-19T08:00:36;8.90;;;3.00;;
57321;SDS011;43159;51.006;18.224;2023-05-19T08:10:20;12.50;;;4.70;;
57321;SDS011;43159;51.006;18.224;2023-05-19T08:20:03;6.60;;;2.70;;
57321;SDS011;43159;51.006;18.224;2023-05-19T08:37:04;8.40;;;3.00;;
57321;SDS011;43159;51.006;18.224;2023-05-19T08:46:48;10.00;;;3.70;;
57321;SDS011;43159;51.006;18.224;2023-05-19T08:56:54;11.10;;;4.40;;
57321;SDS011;43159;51.006;18.224;2023-05-19T09:06:37;11.00;;;5.10;;
57321;SDS011;43159;51.006;18.224;2023-05-19T09:16:25;9.30;;;3.30;;
57321;SDS011;43159;51.006;18.224;2023-05-19T09:26:20;8.70;;;3.30;;
57321;SDS011;43159;51.006;18.224;2023-05-19T09:36:06;13.00;;;4.90;;
57321;SDS011;43159;51.006;18.224;2023-05-19T09:46:03;15.10;;;5.10;;
57321;SDS011;43159;51.006;18.224;2023-05-19T09:55:56;11.10;;;5.20;;
57321;SDS011;43159;51.006;18.224;2023-05-19T10:05:40;13.30;;;5.00;;
57321;SDS011;43159;51.006;18.224;2023-05-19T10:15:28;10.90;;;3.90;;
57321;SDS011;43159;51.006;18.224;2023-05-19T10:25:12;10.80;;;5.00;;
57321;SDS011;43159;51.006;18.224;2023-05-19T10:45:47;11.20;;;5.00;;
57321;SDS011;43159;51.006;18.224;2023-05-19T10:55:54;10.70;;;4.50;;
57321;SDS011;43159;51.006;18.224;2023-05-19T11:16:11;8.20;;;3.30;;
57321;SDS011;43159;51.006;18.224;2023-05-19T11:25:55;10.00;;;3.70;;
57321;SDS011;43159;51.006;18.224;2023-05-19T11:43:06;13.30;;;6.20;;
57321;SDS011;43159;51.006;18.224;2023-05-19T11:52:50;7.90;;;2.50;;
57321;SDS011;43159;51.006;18.224;2023-05-19T12:02:50;13.10;;;3.60;;
57321;SDS011;43159;51.006;18.224;2023-05-19T12:12:44;9.00;;;3.40;;
57321;SDS011;43159;51.006;18.224;2023-05-19T12:22:27;9.40;;;4.20;;
57321;SDS011;43159;51.006;18.224;2023-05-19T12:32:14;11.40;;;3.20;;
57321;SDS011;43159;51.006;18.224;2023-05-19T12:42:03;11.60;;;5.10;;
57321;SDS011;43159;51.006;18.224;2023-05-19T12:52:01;10.20;;;4.80;;
57321;SDS011;43159;51.006;18.224;2023-05-19T13:01:58;10.80;;;3.10;;
57321;SDS011;43159;51.006;18.224;2023-05-19T13:11:45;10.10;;;4.30;;
57321;SDS011;43159;51.006;18.224;2023-05-19T13:21:34;10.20;;;5.10;;
57321;SDS011;43159;51.006;18.224;2023-05-19T13:31:20;9.40;;;3.50;;
57321;SDS011;43159;51.006;18.224;2023-05-19T13:41:02;10.30;;;5.10;;
57321;SDS011;43159;51.006;18.224;2023-05-19T13:50:44;9.80;;;4.40;;
57321;SDS011;43159;51.006;18.224;2023-05-19T14:00:28;7.90;;;2.20;;
57321;SDS011;43159;51.006;18.224;2023-05-19T14:10:12;9.60;;;3.90;;
57321;SDS011;43159;51.006;18.224;2023-05-19T14:19:56;15.40;;;5.30;;
57321;SDS011;43159;51.006;18.224;2023-05-19T14:29:40;9.10;;;3.90;;
57321;SDS011;43159;51.006;18.224;2023-05-19T14:39:26;10.20;;;5.00;;
57321;SDS011;43159;51.006;18.224;2023-05-19T14:49:11;14.10;;;4.80;;
57321;SDS011;43159;51.006;18.224;2023-05-19T14:58:53;13.50;;;6.40;;
57321;SDS011;43159;51.006;18.224;2023-05-19T15:08:35;9.40;;;2.70;;
57321;SDS011;43159;51.006;18.224;2023-05-19T15:18:19;17.10;;;7.40;;
57321;SDS011;43159;51.006;18.224;2023-05-19T15:28:02;15.10;;;7.80;;
57321;SDS011;43159;51.006;18.224;2023-05-19T15:37:45;13.60;;;6.80;;
57321;SDS011;43159;51.006;18.224;2023-05-19T15:47:28;17.00;;;8.50;;
57321;SDS011;43159;51.006;18.224;2023-05-19T15:57:12;14.10;;;6.60;;
57321;SDS011;43159;51.006;18.224;2023-05-19T16:06:55;25.70;;;9.50;;
57321;SDS011;43159;51.006;18.224;2023-05-19T16:16:38;17.90;;;9.60;;
57321;SDS011;43159;51.006;18.224;2023-05-19T16:26:22;14.10;;;8.50;;
57321;SDS011;43159;51.006;18.224;2023-05-19T16:36:05;21.40;;;8.90;;
57321;SDS011;43159;51.006;18.224;2023-05-19T16:45:48;19.10;;;8.80;;
57321;SDS011;43159;51.006;18.224;2023-05-19T16:55:30;19.10;;;10.70;;
57321;SDS011;43159;51.006;18.224;2023-05-19T17:05:13;15.20;;;9.00;;
57321;SDS011;43159;51.006;18.224;2023-05-19T17:14:55;14.50;;;7.10;;
57321;SDS011;43159;51.006;18.224;2023-05-19T17:22:16;20.30;;;14.20;;
57321;SDS011;43159;51.006;18.224;2023-05-19T17:31:58;15.60;;;8.40;;
57321;SDS011;43159;51.006;18.224;2023-05-19T17:41:41;17.60;;;9.00;;
57321;SDS011;43159;51.006;18.224;2023-05-19T17:51:28;16.10;;;8.00;;
57321;SDS011;43159;51.006;18.224;2023-05-19T18:01:15;18.20;;;9.50;;
57321;SDS011;43159;51.006;18.224;2023-05-19T18:11:07;18.30;;;9.00;;
57321;SDS011;43159;51.006;18.224;2023-05-19T18:20:49;18.60;;;8.80;;
57321;SDS011;43159;51.006;18.224;2023-05-19T18:30:37;16.40;;;8.90;;
57321;SDS011;43159;51.006;18.224;2023-05-19T18:40:21;15.60;;;7.90;;
57321;SDS011;43159;51.006;18.224;2023-05-19T18:50:03;16.20;;;8.40;;
57321;SDS011;43159;51.006;18.224;2023-05-19T18:59:46;19.40;;;12.20;;
57321;SDS011;43159;51.006;18.224;2023-05-19T19:09:29;19.10;;;12.20;;
57321;SDS011;43159;51.006;18.224;2023-05-19T19:19:11;23.50;;;13.60;;
57321;SDS011;43159;51.006;18.224;2023-05-19T19:28:55;20.90;;;11.90;;
57321;SDS011;43159;51.006;18.224;2023-05-19T19:38:38;36.50;;;14.80;;
57321;SDS011;43159;51.006;18.224;2023-05-19T19:48:24;19.60;;;9.90;;
57321;SDS011;43159;51.006;18.224;2023-05-19T19:58:19;24.80;;;13.90;;
57321;SDS011;43159;51.006;18.224;2023-05-19T20:08:05;23.90;;;15.00;;
57321;SDS011;43159;51.006;18.224;2023-05-19T20:17:49;23.60;;;13.80;;
57321;SDS011;43159;51.006;18.224;2023-05-19T20:34:48;29.80;;;13.20;;
57321;SDS011;43159;51.006;18.224;2023-05-19T20:44:31;23.40;;;11.40;;
57321;SDS011;43159;51.006;18.224;2023-05-19T20:54:14;21.70;;;12.10;;
57321;SDS011;43159;51.006;18.224;2023-05-19T21:03:59;20.90;;;11.40;;
57321;SDS011;43159;51.006;18.224;2023-05-19T21:13:45;14.50;;;6.80;;
57321;SDS011;43159;51.006;18.224;2023-05-19T21:23:28;20.40;;;12.00;;
57321;SDS011;43159;51.006;18.224;2023-05-19T21:33:12;24.90;;;15.30;;
57321;SDS011;43159;51.006;18.224;2023-05-19T21:42:53;23.10;;;13.50;;
57321;SDS011;43159;51.006;18.224;2023-05-19T21:52:35;19.00;;;11.30;;
57321;SDS011;43159;51.006;18.224;2023-05-19T22:02:20;23.00;;;12.30;;
57321;SDS011;43159;51.006;18.224;2023-05-19T22:12:02;19.70;;;11.60;;
57321;SDS011;43159;51.006;18.224;2023-05-19T22:21:44;19.10;;;11.20;;
57321;SDS011;43159;51.006;18.224;2023-05-19T22:31:27;23.40;;;13.20;;
57321;SDS011;43159;51.006;18.224;2023-05-19T22:41:09;20.60;;;11.90;;
57321;SDS011;43159;51.006;18.224;2023-05-19T22:50:51;22.40;;;11.60;;
57321;SDS011;43159;51.006;18.224;2023-05-19T23:00:33;18.20;;;9.20;;
57321;SDS011;43159;51.006;18.224;2023-05-19T23:10:16;15.90;;;9.20;;
57321;SDS011;43159;51.006;18.224;2023-05-19T23:20:00;22.60;;;10.40;;
57321;SDS011;43159;51.006;18.224;2023-05-19T23:29:46;27.30;;;11.70;;
57321;SDS011;43159;51.006;18.224;2023-05-19T23:39:29;14.10;;;7.30;;
57321;SDS011;43159;51.006;18.224;2023-05-19T23:49:12;20.40;;;10.80;;
57321;SDS011;43159;51.006;18.224;2023-05-19T23:58:55;22.60;;;12.30;;
